Time;durP1;ratioP1;P1;durP2;ratioP2;P2;SDS_P1;SDS_P2;PMS_P1;PMS_P2;Temp;Humidity;BMP_temperature;BMP_pressure;BME280_temperature;BME280_humidity;BME280_pressure;Samples;Min_cycle;Max_cycle;Signal;HPM_P1;HPM_P2
2022/12/03 00:02:01;;;;;;;35.03;16.75;;;2.50;99.90;;;;;;4978915;28;20031;-81
2022/12/03 00:04:27;;;;;;;31.27;16.58;;;2.60;99.90;;;;;;4966068;28;20038;-81
2022/12/03 00:06:52;;;;;;;31.00;16.77;;;2.60;99.90;;;;;;4977982;28;20516;-81
2022/12/03 00:09:18;;;;;;;27.85;14.68;;;2.50;99.90;;;;;;4978795;28;20043;-81
2022/12/03 00:11:44;;;;;;;28.25;15.02;;;2.50;99.90;;;;;;4978384;28;20434;-82
2022/12/03 00:14:09;;;;;;;30.92;16.33;;;2.50;99.90;;;;;;4978330;28;20820;-81
2022/12/03 00:16:35;;;;;;;28.92;15.85;;;2.50;99.90;;;;;;4979079;28;20042;-81
2022/12/03 00:19:01;;;;;;;30.70;16.00;;;2.50;99.90;;;;;;4980929;28;20388;-81
2022/12/03 00:21:26;;;;;;;25.55;13.95;;;2.50;99.90;;;;;;4977911;28;20023;-81
2022/12/03 00:23:52;;;;;;;33.60;16.40;;;2.40;99.90;;;;;;4978851;28;20034;-81
2022/12/03 00:26:18;;;;;;;35.72;16.85;;;2.40;99.90;;;;;;4978669;28;20117;-82
2022/12/03 00:28:43;;;;;;;26.70;15.23;;;2.40;99.90;;;;;;4969606;28;20030;-80
2022/12/03 00:31:09;;;;;;;36.25;18.25;;;2.40;99.90;;;;;;4980640;28;20026;-82
2022/12/03 00:33:34;;;;;;;35.78;17.83;;;2.50;99.90;;;;;;4981541;28;20054;-80
2022/12/03 00:36:00;;;;;;;41.50;18.52;;;2.40;99.90;;;;;;4976991;28;20050;-80
2022/12/03 00:38:27;;;;;;;31.02;16.10;;;2.30;99.90;;;;;;4979624;28;20069;-80
2022/12/03 00:40:52;;;;;;;29.02;15.80;;;2.30;99.90;;;;;;4979638;28;20465;-81
2022/12/03 00:43:18;;;;;;;35.03;17.40;;;2.30;99.90;;;;;;4978129;28;20105;-81
2022/12/03 00:45:44;;;;;;;36.90;18.38;;;2.30;99.90;;;;;;4976867;28;20023;-81
2022/12/03 00:48:09;;;;;;;31.85;17.38;;;2.30;99.90;;;;;;4981426;28;20468;-81
2022/12/03 00:50:35;;;;;;;33.20;16.40;;;2.40;99.90;;;;;;4978208;28;20023;-82
2022/12/03 00:53:00;;;;;;;35.28;16.95;;;2.30;99.90;;;;;;4978244;28;20038;-81
2022/12/03 00:55:26;;;;;;;36.53;17.38;;;2.30;99.90;;;;;;4962414;28;20022;-81
2022/12/03 00:57:54;;;;;;;35.92;17.95;;;2.30;99.90;;;;;;4963198;28;20484;-82
2022/12/03 01:00:23;;;;;;;29.08;16.05;;;2.30;99.90;;;;;;4975115;28;20038;-82
2022/12/03 01:02:50;;;;;;;32.95;15.70;;;2.30;99.90;;;;;;4976777;28;20019;-81
2022/12/03 01:05:19;;;;;;;34.20;16.52;;;2.30;99.90;;;;;;4978548;28;20041;-82
2022/12/03 01:07:45;;;;;;;29.33;15.80;;;2.20;99.90;;;;;;4964954;28;20054;-81
2022/12/03 01:10:14;;;;;;;34.88;16.48;;;2.10;99.90;;;;;;4978164;28;20475;-82
2022/12/03 01:12:40;;;;;;;33.20;15.77;;;2.10;99.90;;;;;;4979538;28;20038;-81
2022/12/03 01:15:06;;;;;;;31.42;15.60;;;2.10;99.90;;;;;;4979867;28;20030;-82
2022/12/03 01:17:32;;;;;;;31.67;16.25;;;2.20;99.90;;;;;;4978433;28;20058;-82
2022/12/03 01:19:58;;;;;;;31.67;16.15;;;2.20;99.90;;;;;;4981381;28;20023;-81
2022/12/03 01:22:24;;;;;;;34.55;16.45;;;2.20;99.90;;;;;;4979450;28;20077;-81
2022/12/03 01:24:49;;;;;;;29.02;15.70;;;2.10;99.90;;;;;;4980287;28;20109;-81
2022/12/03 01:27:15;;;;;;;29.25;15.18;;;2.10;99.90;;;;;;4980235;28;20130;-81
2022/12/03 01:29:41;;;;;;;27.92;14.50;;;2.00;99.90;;;;;;4981176;28;20027;-80
2022/12/03 01:32:18;;;;;;;30.38;15.30;;;2.10;99.90;;;;;;4980609;28;20027;-80
2022/12/03 01:34:49;;;;;;;29.23;14.68;;;2.00;99.90;;;;;;4980613;28;20046;-82
2022/12/03 01:37:15;;;;;;;32.85;16.25;;;2.00;99.90;;;;;;4980033;28;20042;-82
2022/12/03 01:39:41;;;;;;;31.38;15.57;;;2.00;99.90;;;;;;4981943;28;20074;-81
2022/12/03 01:42:11;;;;;;;34.22;15.80;;;2.00;99.90;;;;;;4981911;28;20109;-82
2022/12/03 01:44:39;;;;;;;29.35;13.80;;;2.00;99.90;;;;;;4981060;28;20058;-82
2022/12/03 01:47:11;;;;;;;29.85;14.80;;;2.00;99.90;;;;;;4979654;28;20019;-80
2022/12/03 01:49:48;;;;;;;30.80;15.38;;;2.00;99.90;;;;;;4981174;28;20042;-80
2022/12/03 01:52:23;;;;;;;30.73;14.55;;;2.00;99.90;;;;;;4979494;28;20098;-81
2022/12/03 01:54:55;;;;;;;32.15;16.58;;;1.90;99.90;;;;;;4982135;28;20034;-81
2022/12/03 01:57:38;;;;;;;33.42;15.73;;;1.80;99.90;;;;;;4980599;28;20110;-80
2022/12/03 02:00:06;;;;;;;28.02;14.65;;;1.70;99.90;;;;;;4976240;28;20031;-81
2022/12/03 02:02:32;;;;;;;33.00;15.32;;;1.70;99.90;;;;;;4971303;28;20042;-81
2022/12/03 02:04:58;;;;;;;29.75;15.02;;;1.70;99.90;;;;;;4980058;28;20035;-81
2022/12/03 02:07:33;;;;;;;30.02;15.40;;;1.60;99.90;;;;;;4979811;28;20030;-81
2022/12/03 02:10:01;;;;;;;29.10;15.48;;;1.60;99.90;;;;;;4979453;28;20069;-81
2022/12/03 02:12:33;;;;;;;29.38;15.13;;;1.50;99.90;;;;;;4982351;28;20038;-81
2022/12/03 02:14:59;;;;;;;33.25;15.85;;;1.50;99.90;;;;;;4979011;28;20109;-81
2022/12/03 02:17:26;;;;;;;33.63;16.40;;;1.50;99.90;;;;;;4979386;28;20078;-81
2022/12/03 02:19:53;;;;;;;31.45;15.52;;;1.50;99.90;;;;;;4981745;28;20049;-81
2022/12/03 02:22:22;;;;;;;32.17;15.93;;;1.50;99.90;;;;;;4980360;28;20035;-81
2022/12/03 02:25:02;;;;;;;34.45;15.80;;;1.60;99.90;;;;;;4979115;28;20030;-81
2022/12/03 02:27:28;;;;;;;28.40;14.27;;;1.50;99.90;;;;;;4979401;28;20353;-81
2022/12/03 02:29:54;;;;;;;26.95;13.05;;;1.50;99.90;;;;;;4978221;28;20037;-80
2022/12/03 02:32:22;;;;;;;26.92;14.43;;;1.50;99.90;;;;;;4979459;28;20037;-80
2022/12/03 02:34:48;;;;;;;27.98;13.63;;;1.50;99.90;;;;;;4981905;28;20045;-80
2022/12/03 02:37:23;;;;;;;24.42;12.95;;;1.50;99.90;;;;;;4979966;28;20082;-80
2022/12/03 02:39:55;;;;;;;23.90;12.18;;;1.50;99.90;;;;;;4979920;28;20412;-80
2022/12/03 02:42:34;;;;;;;22.23;11.77;;;1.40;99.90;;;;;;4981079;28;20429;-81
2022/12/03 02:45:05;;;;;;;22.80;12.60;;;1.30;99.90;;;;;;4981264;28;20050;-81
2022/12/03 02:47:34;;;;;;;23.35;12.25;;;1.30;99.90;;;;;;4979742;28;20483;-81
2022/12/03 02:50:01;;;;;;;24.13;13.13;;;1.30;99.90;;;;;;4979745;28;20043;-80
2022/12/03 02:52:27;;;;;;;27.98;14.32;;;1.20;99.90;;;;;;4978061;28;20092;-81
2022/12/03 02:54:55;;;;;;;25.38;11.98;;;1.20;99.90;;;;;;4981433;28;20046;-81
2022/12/03 02:57:24;;;;;;;27.30;12.05;;;1.20;99.90;;;;;;4980889;28;20035;-82
2022/12/03 02:59:50;;;;;;;26.02;12.68;;;1.20;99.90;;;;;;4980137;28;20046;-80
2022/12/03 03:02:16;;;;;;;28.95;14.07;;;1.30;99.90;;;;;;4983229;28;20117;-81
2022/12/03 03:04:42;;;;;;;23.45;12.15;;;1.30;99.90;;;;;;4974670;28;20625;-80
2022/12/03 03:07:08;;;;;;;27.52;12.98;;;1.30;99.90;;;;;;4980037;28;20404;-80
2022/12/03 03:09:34;;;;;;;28.67;13.77;;;1.30;99.90;;;;;;4984478;28;20026;-81
2022/12/03 03:12:00;;;;;;;22.27;12.45;;;1.30;99.90;;;;;;4984165;28;20023;-80
2022/12/03 03:14:26;;;;;;;27.40;13.23;;;1.30;99.90;;;;;;4981916;28;20031;-81
2022/12/03 03:16:54;;;;;;;26.13;12.85;;;1.40;99.90;;;;;;4980689;28;20047;-81
2022/12/03 03:19:29;;;;;;;27.02;13.77;;;1.40;99.90;;;;;;4989988;28;20134;-82
2022/12/03 03:21:55;;;;;;;26.05;12.60;;;1.40;99.90;;;;;;4989409;28;20054;-80
2022/12/03 03:24:22;;;;;;;25.10;13.32;;;1.40;99.90;;;;;;4990267;28;20145;-80
2022/12/03 03:26:48;;;;;;;30.25;14.88;;;1.40;99.90;;;;;;4989838;28;20044;-79
2022/12/03 03:29:14;;;;;;;29.70;14.00;;;1.40;99.90;;;;;;4979296;28;20103;-79
2022/12/03 03:31:42;;;;;;;30.50;14.98;;;1.40;99.90;;;;;;4979756;28;20023;-79
2022/12/03 03:34:08;;;;;;;29.08;14.82;;;1.30;99.90;;;;;;4989408;28;20026;-80
2022/12/03 03:36:35;;;;;;;29.63;14.80;;;1.30;99.90;;;;;;4986732;28;20026;-80
2022/12/03 03:39:02;;;;;;;30.25;15.05;;;1.20;99.90;;;;;;4979775;28;20077;-80
2022/12/03 03:41:29;;;;;;;27.27;14.23;;;1.20;99.90;;;;;;4977530;28;20050;-80
2022/12/03 03:43:55;;;;;;;27.92;14.25;;;1.20;99.90;;;;;;4977777;28;20030;-80
2022/12/03 03:46:21;;;;;;;28.08;13.80;;;1.30;99.90;;;;;;4977997;28;20061;-80
2022/12/03 03:48:51;;;;;;;28.88;14.65;;;1.30;99.90;;;;;;4973616;28;20030;-81
2022/12/03 03:51:18;;;;;;;26.52;14.50;;;1.40;99.90;;;;;;4981313;28;20050;-80
2022/12/03 03:53:47;;;;;;;29.35;14.40;;;1.40;99.90;;;;;;4978350;28;20041;-80
2022/12/03 03:56:17;;;;;;;25.55;14.00;;;1.30;99.90;;;;;;4978474;28;20045;-81
2022/12/03 03:58:43;;;;;;;27.85;13.93;;;1.30;99.90;;;;;;4981271;28;20033;-81
2022/12/03 04:01:11;;;;;;;26.45;13.52;;;1.30;99.90;;;;;;4977288;28;20027;-80
2022/12/03 04:03:37;;;;;;;25.83;13.07;;;1.30;99.90;;;;;;4980950;28;20027;-81
2022/12/03 04:06:02;;;;;;;22.77;12.90;;;1.20;99.90;;;;;;4978321;28;20439;-81
2022/12/03 04:08:28;;;;;;;21.42;11.75;;;1.20;99.90;;;;;;4976779;28;20157;-81
2022/12/03 04:13:38;;;;;;;23.33;13.05;;;1.20;99.90;;;;;;4978777;28;20124;-81
2022/12/03 04:16:04;;;;;;;22.80;11.95;;;1.20;99.90;;;;;;4977572;28;20039;-80
2022/12/03 04:18:41;;;;;;;22.60;11.85;;;1.30;99.90;;;;;;4979147;28;20074;-81
2022/12/03 04:23:55;;;;;;;23.88;11.75;;;1.30;99.90;;;;;;4979918;28;20049;-81
2022/12/03 04:29:05;;;;;;;24.02;12.90;;;1.20;99.90;;;;;;4977397;28;20114;-81
2022/12/03 04:37:00;;;;;;;18.88;10.75;;;1.10;99.90;;;;;;4978710;28;20060;-80
2022/12/03 04:39:26;;;;;;;21.40;11.35;;;1.10;99.90;;;;;;4980861;28;20031;-80
2022/12/03 04:41:52;;;;;;;20.77;11.70;;;1.10;99.90;;;;;;4983979;28;20037;-80
2022/12/03 04:44:34;;;;;;;22.25;10.57;;;1.00;99.90;;;;;;4995543;28;20054;-80
2022/12/03 04:47:11;;;;;;;20.00;10.40;;;1.00;99.90;;;;;;4974814;29;20039;-81
2022/12/03 04:49:40;;;;;;;19.58;10.02;;;0.90;99.90;;;;;;4977007;29;20031;-80
2022/12/03 04:52:10;;;;;;;21.48;10.52;;;0.80;99.90;;;;;;4968865;28;20537;-80
2022/12/03 04:54:36;;;;;;;19.58;10.18;;;0.80;99.90;;;;;;4973711;28;20086;-80
2022/12/03 04:57:03;;;;;;;22.48;11.55;;;0.80;99.90;;;;;;4977296;28;20139;-80
2022/12/03 04:59:28;;;;;;;19.73;9.80;;;0.80;99.90;;;;;;4979094;28;20023;-80
2022/12/03 05:01:54;;;;;;;20.70;10.52;;;0.70;99.90;;;;;;4981554;28;20041;-80
2022/12/03 05:04:19;;;;;;;19.05;9.85;;;0.70;99.90;;;;;;4981618;28;20027;-80
2022/12/03 05:06:45;;;;;;;19.33;9.48;;;0.70;99.90;;;;;;4981481;28;20165;-80
2022/12/03 05:09:14;;;;;;;20.50;11.15;;;0.70;99.90;;;;;;4982692;28;20027;-81
2022/12/03 05:11:40;;;;;;;20.88;11.23;;;0.70;99.90;;;;;;4980999;28;20049;-83
2022/12/03 05:14:06;;;;;;;20.45;11.73;;;0.80;99.90;;;;;;4964431;28;20022;-81
2022/12/03 05:16:32;;;;;;;22.20;10.88;;;0.80;99.90;;;;;;4983939;28;20045;-80
2022/12/03 05:18:57;;;;;;;19.98;9.77;;;0.80;99.90;;;;;;4995785;28;20046;-80
2022/12/03 05:21:23;;;;;;;21.45;10.60;;;0.90;99.90;;;;;;4983496;28;20066;-80
2022/12/03 05:23:49;;;;;;;21.08;11.48;;;0.90;99.90;;;;;;4981350;28;20035;-80
2022/12/03 05:26:14;;;;;;;22.80;10.23;;;1.00;99.90;;;;;;4977409;28;20041;-80
2022/12/03 05:28:40;;;;;;;20.05;10.65;;;1.00;99.90;;;;;;4979951;28;20033;-81
2022/12/03 05:31:06;;;;;;;19.83;10.27;;;1.10;99.90;;;;;;4980094;28;20054;-81
2022/12/03 05:33:32;;;;;;;23.73;11.45;;;1.10;99.90;;;;;;4982555;28;20500;-80
2022/12/03 05:35:57;;;;;;;23.85;10.20;;;1.10;99.90;;;;;;4981288;28;20034;-80
2022/12/03 05:38:23;;;;;;;19.13;9.73;;;1.10;99.90;;;;;;4981235;28;20095;-81
2022/12/03 05:40:49;;;;;;;21.30;10.98;;;1.10;99.90;;;;;;4983113;28;20421;-80
2022/12/03 05:43:14;;;;;;;23.23;10.52;;;1.10;99.90;;;;;;4980074;28;20110;-81
2022/12/03 05:45:42;;;;;;;23.75;11.55;;;1.00;99.90;;;;;;4981695;28;20031;-82
2022/12/03 05:48:10;;;;;;;25.35;12.82;;;1.00;99.90;;;;;;4981865;28;20050;-82
2022/12/03 05:50:37;;;;;;;25.15;11.65;;;1.00;99.90;;;;;;4985248;28;20034;-81
2022/12/03 05:53:03;;;;;;;27.63;12.23;;;1.00;99.90;;;;;;4983209;28;20330;-80
2022/12/03 05:55:29;;;;;;;26.55;12.00;;;0.90;99.90;;;;;;4981905;28;20270;-82
2022/12/03 05:57:55;;;;;;;24.23;11.80;;;1.00;99.90;;;;;;4984367;28;20041;-82
2022/12/03 06:00:23;;;;;;;26.27;11.93;;;1.00;99.90;;;;;;4964440;29;20503;-82
2022/12/03 06:02:49;;;;;;;23.20;11.88;;;1.10;99.90;;;;;;4962548;29;20062;-82
2022/12/03 06:05:18;;;;;;;25.77;13.15;;;1.10;99.90;;;;;;4963914;28;20364;-82
2022/12/03 06:07:44;;;;;;;25.95;12.95;;;1.10;99.90;;;;;;4964460;29;20026;-82
2022/12/03 06:10:13;;;;;;;28.75;12.95;;;1.10;99.90;;;;;;4975276;28;20054;-81
2022/12/03 06:12:38;;;;;;;30.40;13.52;;;1.00;99.90;;;;;;4967512;28;20038;-80
2022/12/03 06:15:05;;;;;;;26.92;12.13;;;1.00;99.90;;;;;;4982620;28;20027;-81
2022/12/03 06:17:30;;;;;;;31.90;14.15;;;1.00;99.90;;;;;;4982124;28;20082;-82
2022/12/03 06:19:56;;;;;;;29.90;14.50;;;1.00;99.90;;;;;;4981650;28;20023;-81
2022/12/03 06:22:21;;;;;;;36.80;15.25;;;1.00;99.90;;;;;;4982881;28;20050;-81
2022/12/03 06:24:47;;;;;;;27.13;13.60;;;0.90;99.90;;;;;;4982875;28;20444;-81
2022/12/03 06:27:13;;;;;;;25.10;12.45;;;0.90;99.90;;;;;;4982063;28;20023;-82
2022/12/03 06:29:38;;;;;;;28.63;12.98;;;1.00;99.90;;;;;;4984190;28;20043;-81
2022/12/03 06:32:05;;;;;;;27.67;13.23;;;1.10;99.90;;;;;;4983477;28;20049;-81
2022/12/03 06:34:30;;;;;;;28.25;12.52;;;1.00;99.90;;;;;;4981357;28;20051;-80
2022/12/03 06:36:56;;;;;;;28.05;13.35;;;1.00;99.90;;;;;;4982270;28;20093;-80
2022/12/03 06:39:22;;;;;;;30.92;14.43;;;1.00;99.90;;;;;;4981685;28;20022;-82
2022/12/03 06:41:48;;;;;;;29.95;13.93;;;1.10;99.90;;;;;;4983574;28;20387;-82
2022/12/03 06:44:14;;;;;;;27.73;13.45;;;1.10;99.90;;;;;;4983078;28;20110;-82
2022/12/03 06:46:39;;;;;;;32.15;14.90;;;1.10;99.90;;;;;;4983746;28;20377;-82
2022/12/03 06:49:07;;;;;;;28.10;14.43;;;1.10;99.90;;;;;;4983340;28;20038;-81
2022/12/03 06:51:34;;;;;;;33.47;13.43;;;1.00;99.90;;;;;;4986579;28;20041;-81
2022/12/03 06:54:02;;;;;;;33.40;14.95;;;1.00;99.90;;;;;;4984936;28;20609;-81
2022/12/03 06:56:29;;;;;;;35.67;14.63;;;1.00;99.90;;;;;;4983743;28;20053;-82
2022/12/03 06:58:54;;;;;;;33.80;14.68;;;1.10;99.90;;;;;;4984146;28;20031;-80
2022/12/03 07:01:20;;;;;;;29.27;14.30;;;1.10;99.90;;;;;;4986224;28;20047;-80
2022/12/03 07:03:46;;;;;;;30.73;13.10;;;1.10;99.90;;;;;;4987231;28;20039;-81
2022/12/03 07:06:12;;;;;;;28.85;13.50;;;1.10;99.90;;;;;;4987590;28;20031;-81
2022/12/03 07:08:37;;;;;;;27.23;15.60;;;1.20;99.90;;;;;;4996621;28;20042;-79
2022/12/03 07:11:03;;;;;;;26.17;12.82;;;1.20;99.90;;;;;;4997819;28;20042;-79
2022/12/03 07:13:29;;;;;;;33.55;14.35;;;1.20;99.90;;;;;;4997229;28;20035;-80
2022/12/03 07:15:54;;;;;;;32.13;15.45;;;1.30;99.90;;;;;;4996389;28;20046;-80
2022/12/03 07:18:20;;;;;;;31.45;14.13;;;1.30;99.90;;;;;;4993707;28;20023;-80
2022/12/03 07:20:46;;;;;;;34.13;14.13;;;1.30;99.90;;;;;;4995918;28;20460;-79
2022/12/03 07:23:11;;;;;;;29.17;13.70;;;1.20;99.90;;;;;;4996610;28;20050;-78
2022/12/03 07:25:37;;;;;;;29.83;13.68;;;1.10;99.90;;;;;;4982060;28;20034;-77
2022/12/03 07:28:03;;;;;;;31.10;13.73;;;1.20;99.90;;;;;;4982908;28;20030;-81
2022/12/03 07:30:28;;;;;;;25.83;13.13;;;1.20;99.90;;;;;;4984235;28;20792;-81
2022/12/03 07:32:54;;;;;;;26.08;13.45;;;1.20;99.90;;;;;;4986840;28;20038;-81
2022/12/03 07:35:26;;;;;;;27.70;13.05;;;1.30;99.90;;;;;;4983891;28;20769;-80
2022/12/03 07:37:51;;;;;;;28.58;13.70;;;1.30;99.90;;;;;;4981783;28;20069;-81
2022/12/03 07:40:17;;;;;;;25.42;12.85;;;1.30;99.90;;;;;;4980096;28;20031;-82
2022/12/03 07:42:43;;;;;;;26.27;13.15;;;1.30;99.90;;;;;;4984444;28;20035;-81
2022/12/03 07:45:09;;;;;;;23.90;11.95;;;1.30;99.90;;;;;;4982000;28;20484;-83
2022/12/03 07:47:34;;;;;;;22.75;11.52;;;1.30;99.90;;;;;;4983347;28;20368;-82
2022/12/03 07:50:00;;;;;;;24.27;11.70;;;1.40;99.90;;;;;;4980675;28;20031;-82
2022/12/03 07:52:25;;;;;;;30.73;12.82;;;1.50;99.90;;;;;;4980665;28;20070;-81
2022/12/03 07:54:51;;;;;;;23.02;10.82;;;1.50;99.90;;;;;;4981221;28;20130;-81
2022/12/03 07:57:17;;;;;;;28.20;12.73;;;1.40;99.90;;;;;;4981432;28;20090;-81
2022/12/03 07:59:42;;;;;;;27.58;12.60;;;1.50;99.90;;;;;;4981422;28;20102;-81
2022/12/03 08:02:08;;;;;;;28.70;13.05;;;1.50;99.90;;;;;;4983109;28;20041;-80
2022/12/03 08:04:34;;;;;;;25.10;12.10;;;1.50;99.90;;;;;;4984133;28;20043;-81
2022/12/03 08:06:59;;;;;;;26.73;13.52;;;1.40;99.90;;;;;;4979270;28;20062;-81
2022/12/03 08:09:25;;;;;;;26.05;12.50;;;1.40;99.90;;;;;;4982441;28;20045;-82
2022/12/03 08:11:51;;;;;;;22.30;12.35;;;1.30;99.90;;;;;;4983280;28;20050;-82
2022/12/03 08:14:19;;;;;;;27.70;12.32;;;1.30;99.90;;;;;;4983955;28;20472;-82
2022/12/03 08:16:46;;;;;;;25.20;12.48;;;1.30;99.90;;;;;;4982116;28;20030;-81
2022/12/03 08:19:14;;;;;;;29.55;11.90;;;1.30;99.90;;;;;;4987267;28;20030;-82
2022/12/03 08:21:40;;;;;;;26.63;12.57;;;1.40;99.90;;;;;;4981823;28;20023;-81
2022/12/03 08:24:24;;;;;;;25.55;12.30;;;1.30;99.90;;;;;;4982063;28;20041;-81
2022/12/03 08:26:49;;;;;;;28.08;13.95;;;1.30;99.90;;;;;;4981798;28;20026;-81
2022/12/03 08:29:19;;;;;;;27.02;12.05;;;1.30;99.90;;;;;;4983195;28;20420;-80
2022/12/03 08:31:50;;;;;;;27.73;12.35;;;1.30;99.90;;;;;;4981480;28;20054;-82
2022/12/03 08:34:22;;;;;;;28.02;13.15;;;1.50;99.90;;;;;;4984546;28;20162;-81
2022/12/03 08:37:00;;;;;;;25.13;11.85;;;1.40;99.90;;;;;;4986366;28;20050;-82
2022/12/03 08:39:28;;;;;;;29.45;13.35;;;1.40;99.90;;;;;;4988648;28;20034;-81
2022/12/03 08:44:43;;;;;;;25.75;12.88;;;1.40;99.90;;;;;;4983585;28;20074;-83
2022/12/03 08:47:08;;;;;;;24.58;12.60;;;1.40;99.90;;;;;;4984863;28;20047;-81
2022/12/03 08:49:35;;;;;;;25.73;12.48;;;1.30;99.90;;;;;;4988185;28;20039;-81
2022/12/03 08:52:12;;;;;;;33.20;12.65;;;1.40;99.90;;;;;;4986008;28;20023;-81
2022/12/03 08:54:37;;;;;;;27.42;12.75;;;1.40;99.90;;;;;;4967714;28;20065;-81
2022/12/03 08:57:26;;;;;;;29.52;13.38;;;1.40;99.90;;;;;;4986368;28;20027;-81
2022/12/03 09:00:16;;;;;;;30.90;13.55;;;1.60;99.90;;;;;;4985229;28;20101;-82
2022/12/03 09:02:48;;;;;;;28.63;12.48;;;1.50;99.90;;;;;;4986932;28;20142;-81
2022/12/03 09:05:23;;;;;;;26.88;12.93;;;1.50;99.90;;;;;;4987230;28;20041;-82
2022/12/03 09:07:49;;;;;;;28.77;12.73;;;1.40;99.90;;;;;;4986325;28;20230;-82
2022/12/03 09:10:15;;;;;;;24.17;12.00;;;1.50;99.90;;;;;;4986112;28;20023;-82
2022/12/03 09:12:40;;;;;;;27.27;12.65;;;1.50;99.90;;;;;;4985556;28;20110;-82
2022/12/03 09:15:07;;;;;;;22.98;11.80;;;1.50;99.90;;;;;;4987842;28;20026;-82
2022/12/03 09:17:32;;;;;;;25.40;11.82;;;1.50;99.90;;;;;;4985136;28;20090;-82
2022/12/03 09:19:58;;;;;;;28.23;12.82;;;1.50;99.90;;;;;;4995061;28;20019;-82
2022/12/03 09:22:24;;;;;;;23.65;11.57;;;1.50;99.90;;;;;;4990683;28;20452;-82
2022/12/03 09:24:49;;;;;;;29.33;13.43;;;1.50;99.90;;;;;;4988213;28;20061;-81
2022/12/03 09:27:15;;;;;;;30.13;14.13;;;1.50;99.90;;;;;;4988789;28;20476;-82
2022/12/03 09:29:40;;;;;;;26.92;13.05;;;1.50;99.90;;;;;;4984494;28;20415;-81
2022/12/03 09:32:06;;;;;;;25.27;12.40;;;1.50;99.90;;;;;;4984692;28;20173;-82
2022/12/03 09:34:33;;;;;;;24.35;11.43;;;1.50;99.90;;;;;;4988250;28;20042;-82
2022/12/03 09:36:59;;;;;;;24.45;12.10;;;1.60;99.90;;;;;;4986454;28;20464;-81
2022/12/03 09:39:25;;;;;;;25.85;12.23;;;1.60;99.90;;;;;;4986606;28;20023;-81
2022/12/03 09:41:50;;;;;;;23.55;11.05;;;1.70;99.90;;;;;;4987240;28;20117;-82
2022/12/03 09:44:16;;;;;;;22.48;11.65;;;1.80;99.90;;;;;;4986904;28;20054;-81
2022/12/03 09:46:43;;;;;;;23.77;12.57;;;1.80;99.90;;;;;;4985390;28;20074;-81
2022/12/03 09:49:10;;;;;;;21.80;10.90;;;1.80;99.90;;;;;;4988443;28;20023;-81
2022/12/03 09:51:36;;;;;;;20.50;10.30;;;1.90;99.90;;;;;;4990470;28;20126;-81
2022/12/03 09:54:04;;;;;;;25.40;12.52;;;2.00;99.90;;;;;;4991389;28;20042;-80
2022/12/03 09:56:30;;;;;;;20.02;10.60;;;2.10;99.90;;;;;;4992460;28;20058;-80
2022/12/03 09:58:56;;;;;;;26.95;11.60;;;2.10;99.90;;;;;;4973930;28;20073;-80
2022/12/03 10:01:22;;;;;;;20.23;11.07;;;2.10;99.90;;;;;;4990559;28;20023;-80
2022/12/03 10:03:50;;;;;;;25.27;11.23;;;2.10;99.90;;;;;;4996552;28;20015;-80
2022/12/03 10:06:22;;;;;;;22.92;11.90;;;2.20;99.90;;;;;;4997011;28;20025;-81
2022/12/03 10:08:53;;;;;;;20.67;11.35;;;2.20;99.90;;;;;;4997226;28;20023;-80
2022/12/03 10:11:23;;;;;;;20.20;11.10;;;2.30;99.90;;;;;;4996128;28;20015;-80
2022/12/03 10:13:48;;;;;;;17.17;9.35;;;2.20;99.90;;;;;;4999873;28;20015;-80
2022/12/03 10:16:17;;;;;;;21.83;10.77;;;2.20;99.90;;;;;;4999290;28;20015;-80
2022/12/03 10:18:54;;;;;;;21.20;10.82;;;2.30;99.90;;;;;;4999238;28;20042;-80
2022/12/03 10:21:29;;;;;;;22.88;12.30;;;2.30;99.90;;;;;;4988044;28;20031;-82
2022/12/03 10:24:16;;;;;;;19.95;11.00;;;2.20;99.90;;;;;;4967306;28;20113;-80
2022/12/03 10:26:43;;;;;;;21.17;11.23;;;2.10;99.90;;;;;;4984281;28;20014;-80
2022/12/03 10:29:23;;;;;;;18.55;10.02;;;2.10;99.90;;;;;;4984173;28;20045;-82
2022/12/03 10:31:55;;;;;;;21.83;11.77;;;2.00;99.90;;;;;;4983227;28;20018;-82
2022/12/03 10:34:30;;;;;;;20.23;11.27;;;1.90;99.90;;;;;;4983173;28;20045;-81
2022/12/03 10:37:17;;;;;;;23.95;12.30;;;2.00;99.90;;;;;;4966579;28;20042;-81
2022/12/03 10:40:08;;;;;;;23.35;11.65;;;2.10;99.90;;;;;;4985167;28;20019;-81
2022/12/03 10:42:39;;;;;;;21.60;10.95;;;2.10;99.90;;;;;;4985790;28;20026;-81
2022/12/03 10:45:15;;;;;;;21.98;10.55;;;2.20;99.90;;;;;;4983536;28;20034;-82
2022/12/03 10:47:42;;;;;;;21.15;11.38;;;2.20;99.90;;;;;;4984283;28;20118;-82
2022/12/03 10:50:17;;;;;;;27.50;11.75;;;2.20;99.90;;;;;;4981654;28;20029;-81
2022/12/03 10:52:44;;;;;;;25.10;11.80;;;2.10;99.90;;;;;;4985070;28;20087;-82
2022/12/03 10:55:13;;;;;;;27.08;12.85;;;2.10;99.90;;;;;;4978877;28;20042;-82
2022/12/03 10:57:39;;;;;;;26.75;12.60;;;2.10;99.90;;;;;;4960125;28;20121;-81
2022/12/03 11:00:06;;;;;;;25.40;12.75;;;2.00;99.90;;;;;;4980909;28;20058;-81
2022/12/03 11:02:32;;;;;;;26.50;12.10;;;2.00;99.90;;;;;;4983049;28;20031;-80
2022/12/03 11:04:58;;;;;;;25.83;13.13;;;2.00;99.90;;;;;;4997243;28;20060;-79
2022/12/03 11:07:25;;;;;;;23.98;12.48;;;2.10;99.90;;;;;;4997886;28;20015;-80
2022/12/03 11:09:57;;;;;;;27.95;13.95;;;2.00;99.90;;;;;;4998028;28;20018;-79
2022/12/03 11:12:28;;;;;;;26.80;13.68;;;1.90;99.90;;;;;;4998265;28;20094;-81
2022/12/03 11:14:53;;;;;;;27.73;13.48;;;1.90;99.90;;;;;;4997556;28;20091;-79
2022/12/03 11:17:45;;;;;;;28.02;13.18;;;1.90;99.90;;;;;;4997599;28;20023;-79
2022/12/03 11:20:23;;;;;;;28.20;12.50;;;1.90;99.90;;;;;;4997901;28;20026;-80
2022/12/03 11:22:54;;;;;;;23.58;12.75;;;1.90;99.90;;;;;;4990596;28;20102;-80
2022/12/03 11:25:25;;;;;;;28.38;14.45;;;1.90;99.90;;;;;;4985859;28;20038;-82
2022/12/03 11:28:12;;;;;;;31.55;16.02;;;1.90;99.90;;;;;;4979895;28;20034;-82
2022/12/03 11:30:50;;;;;;;29.70;15.07;;;2.00;99.90;;;;;;4980779;28;20034;-80
2022/12/03 11:33:30;;;;;;;29.02;14.27;;;1.90;99.90;;;;;;4981301;28;20022;-83
2022/12/03 11:36:02;;;;;;;32.00;16.45;;;1.90;99.90;;;;;;4981405;28;20034;-80
2022/12/03 11:38:37;;;;;;;28.63;14.50;;;1.90;99.90;;;;;;4986269;28;20023;-83
2022/12/03 11:41:05;;;;;;;28.00;13.90;;;1.90;99.90;;;;;;4983102;28;20130;-82
2022/12/03 11:43:56;;;;;;;30.02;15.60;;;2.00;99.90;;;;;;4982720;28;20027;-82
2022/12/03 11:46:31;;;;;;;30.63;14.63;;;2.00;99.90;;;;;;4981581;28;20444;-81
2022/12/03 11:48:58;;;;;;;32.28;15.48;;;2.00;99.90;;;;;;4984923;28;20030;-81
2022/12/03 11:51:26;;;;;;;34.30;16.92;;;2.10;99.90;;;;;;4981573;28;20022;-82
2022/12/03 11:53:55;;;;;;;29.38;14.70;;;2.10;99.90;;;;;;4982129;28;20027;-83
2022/12/03 11:56:29;;;;;;;30.98;15.88;;;2.10;99.90;;;;;;4981250;28;20030;-82
2022/12/03 11:59:00;;;;;;;31.80;15.52;;;2.20;99.90;;;;;;4987336;28;20051;-82
2022/12/03 12:01:34;;;;;;;36.35;17.65;;;2.20;99.90;;;;;;4983505;28;20038;-83
2022/12/03 12:04:00;;;;;;;30.35;15.75;;;2.10;99.90;;;;;;4984239;28;20039;-81
2022/12/03 12:06:26;;;;;;;34.80;16.95;;;2.20;99.90;;;;;;4984404;28;20084;-81
2022/12/03 12:08:51;;;;;;;27.73;14.57;;;2.20;99.90;;;;;;4978120;28;20023;-79
2022/12/03 12:11:27;;;;;;;26.83;13.88;;;2.20;99.90;;;;;;4989324;28;20027;-81
2022/12/03 12:14:00;;;;;;;27.98;14.82;;;2.20;99.90;;;;;;4977388;28;20050;-81
2022/12/03 12:16:48;;;;;;;25.65;14.23;;;2.10;99.90;;;;;;4980724;28;20115;-81
2022/12/03 12:19:26;;;;;;;26.42;13.75;;;2.10;99.90;;;;;;4980179;28;20046;-80
2022/12/03 12:21:52;;;;;;;28.83;13.98;;;2.20;99.90;;;;;;4981705;28;20030;-82
2022/12/03 12:24:39;;;;;;;28.15;14.38;;;2.20;99.90;;;;;;4979348;28;20049;-82
2022/12/03 12:27:10;;;;;;;26.38;12.57;;;2.30;99.90;;;;;;4980720;28;20431;-81
2022/12/03 12:29:37;;;;;;;26.98;13.50;;;2.40;99.90;;;;;;4961902;28;20126;-80
2022/12/03 12:32:12;;;;;;;30.45;14.63;;;2.40;99.90;;;;;;4961847;28;20067;-82
2022/12/03 12:34:49;;;;;;;26.67;13.73;;;2.30;99.90;;;;;;4976342;28;20053;-80
2022/12/03 12:37:29;;;;;;;31.13;15.25;;;2.20;99.90;;;;;;4968442;28;20510;-81
2022/12/03 12:39:56;;;;;;;28.83;15.30;;;2.20;99.90;;;;;;4979568;28;20026;-79
2022/12/03 12:42:30;;;;;;;26.83;14.68;;;2.10;99.90;;;;;;4982548;28;20039;-81
2022/12/03 12:45:06;;;;;;;31.10;16.33;;;2.20;99.90;;;;;;4979672;28;20054;-81
2022/12/03 12:47:34;;;;;;;31.92;15.52;;;2.30;99.90;;;;;;4977978;28;20114;-80
2022/12/03 12:50:00;;;;;;;40.00;15.30;;;2.20;99.90;;;;;;4979863;28;20026;-81
2022/12/03 12:52:26;;;;;;;30.98;15.98;;;2.10;99.90;;;;;;4981413;28;20035;-81
2022/12/03 12:54:52;;;;;;;28.98;15.57;;;2.00;99.90;;;;;;4974694;28;20058;-81
2022/12/03 12:57:22;;;;;;;29.05;15.43;;;2.00;99.90;;;;;;4997273;28;20030;-80
2022/12/03 12:59:48;;;;;;;31.92;14.82;;;2.00;99.90;;;;;;4976426;28;20067;-80
2022/12/03 13:02:34;;;;;;;32.55;15.75;;;1.90;99.90;;;;;;4979192;28;20053;-81